Time;durP1;ratioP1;P1;durP2;ratioP2;P2;SDS_P1;SDS_P2;PMS_P1;PMS_P2;Temp;Humidity;BMP_temperature;BMP_pressure;BME280_temperature;BME280_humidity;BME280_pressure;Samples;Min_cycle;Max_cycle;Signal;HPM_P1;HPM_P2
2021/11/05 00:00:18;;;;;;;1.60;1.50;;;7.40;99.90;;;;;;5078446;28;20205;-83
2021/11/05 00:02:46;;;;;;;0.50;0.40;;;7.40;99.90;;;;;;5078073;28;20234;-82
2021/11/05 00:05:13;;;;;;;0.50;0.40;;;7.40;99.90;;;;;;5080709;28;20187;-81
2021/11/05 00:07:40;;;;;;;3.35;3.15;;;7.40;99.90;;;;;;5086900;28;20195;-82
2021/11/05 00:10:08;;;;;;;0.50;0.40;;;7.50;99.90;;;;;;5087626;28;20201;-80
2021/11/05 00:12:35;;;;;;;7.50;6.88;;;7.50;99.90;;;;;;5087263;28;20213;-83
2021/11/05 00:15:01;;;;;;;0.50;0.30;;;7.50;99.90;;;;;;5086189;28;20199;-82
2021/11/05 00:17:28;;;;;;;0.50;0.40;;;7.60;99.90;;;;;;5089879;28;20397;-82
2021/11/05 00:19:56;;;;;;;1.85;1.48;;;7.60;99.90;;;;;;5089028;28;20210;-82
2021/11/05 00:22:23;;;;;;;0.50;0.40;;;7.60;99.90;;;;;;5090968;28;20195;-82
2021/11/05 00:24:50;;;;;;;0.50;0.30;;;7.60;99.90;;;;;;5090752;28;20701;-82
2021/11/05 00:27:17;;;;;;;1.83;1.70;;;7.60;99.90;;;;;;5089524;28;20206;-78
2021/11/05 00:29:44;;;;;;;1.48;1.38;;;7.60;99.90;;;;;;5087980;28;20301;-81
2021/11/05 00:32:11;;;;;;;0.77;0.73;;;7.70;99.90;;;;;;5088319;28;20201;-82
2021/11/05 00:34:38;;;;;;;0.50;0.40;;;7.70;99.90;;;;;;5090180;28;20230;-82
2021/11/05 00:37:06;;;;;;;1.33;1.25;;;7.70;99.90;;;;;;5090249;28;20199;-81
2021/11/05 00:39:34;;;;;;;2.28;2.08;;;7.70;99.90;;;;;;5089006;28;20207;-81
2021/11/05 00:42:00;;;;;;;0.75;0.75;;;7.80;99.90;;;;;;5089070;28;20498;-82
2021/11/05 00:44:27;;;;;;;0.63;0.63;;;7.80;99.90;;;;;;5081918;28;20218;-81
2021/11/05 00:46:54;;;;;;;0.60;0.60;;;7.80;99.90;;;;;;5081143;28;20192;-78
2021/11/05 00:49:21;;;;;;;1.25;1.25;;;7.80;99.90;;;;;;5081124;28;20187;-81
2021/11/05 00:51:48;;;;;;;0.50;0.40;;;7.80;99.90;;;;;;5080722;28;20200;-82
2021/11/05 00:54:16;;;;;;;3.00;1.95;;;7.80;99.90;;;;;;5080720;28;20581;-82
2021/11/05 00:56:43;;;;;;;0.50;0.38;;;7.80;99.90;;;;;;5081640;28;20204;-82
2021/11/05 00:59:10;;;;;;;4.30;2.20;;;7.70;99.90;;;;;;5080846;28;20725;-82
2021/11/05 01:01:37;;;;;;;0.60;0.40;;;7.80;99.90;;;;;;5080703;28;20688;-82
2021/11/05 01:04:04;;;;;;;0.50;0.40;;;7.80;99.90;;;;;;5080360;28;20236;-83
2021/11/05 01:06:30;;;;;;;0.50;0.40;;;7.80;99.90;;;;;;5080730;28;20195;-79
2021/11/05 01:08:57;;;;;;;0.50;0.40;;;7.70;99.90;;;;;;5081781;28;20190;-82
2021/11/05 01:11:25;;;;;;;0.50;0.40;;;7.70;99.90;;;;;;5079575;28;20196;-82
2021/11/05 01:13:52;;;;;;;1.13;1.13;;;7.60;99.90;;;;;;5080200;28;20211;-83
2021/11/05 01:16:19;;;;;;;0.50;0.40;;;7.60;99.90;;;;;;5079622;28;20209;-81
2021/11/05 01:18:47;;;;;;;0.50;0.40;;;7.60;99.90;;;;;;5079765;28;20210;-82
2021/11/05 01:21:14;;;;;;;0.50;0.40;;;7.60;99.90;;;;;;5079493;28;20199;-82
2021/11/05 01:23:41;;;;;;;0.50;0.40;;;7.60;99.90;;;;;;5080168;28;20223;-82
2021/11/05 01:26:08;;;;;;;0.50;0.40;;;7.60;99.90;;;;;;5080076;28;20212;-82
2021/11/05 01:28:37;;;;;;;0.50;0.40;;;7.70;99.90;;;;;;5080089;28;20201;-79
2021/11/05 01:31:04;;;;;;;0.60;0.40;;;7.70;99.90;;;;;;5081107;28;20204;-81
2021/11/05 01:33:31;;;;;;;0.50;0.40;;;7.70;99.90;;;;;;5088665;28;20221;-82
2021/11/05 01:35:58;;;;;;;4.30;4.18;;;7.70;99.90;;;;;;5090660;28;20263;-82
2021/11/05 01:38:25;;;;;;;1.55;1.45;;;7.80;99.90;;;;;;5091446;28;20209;-81
2021/11/05 01:40:52;;;;;;;0.50;0.40;;;7.80;99.90;;;;;;5092277;28;20194;-81
2021/11/05 01:43:20;;;;;;;0.50;0.40;;;7.80;99.90;;;;;;5093000;28;20302;-82
2021/11/05 01:45:49;;;;;;;5.05;4.82;;;7.80;99.90;;;;;;5091985;28;20216;-81
2021/11/05 01:48:16;;;;;;;2.15;2.05;;;7.70;99.90;;;;;;5093851;28;20198;-80
2021/11/05 01:50:44;;;;;;;0.50;0.40;;;7.80;99.90;;;;;;5092947;28;20200;-81
2021/11/05 01:53:11;;;;;;;0.50;0.40;;;7.80;99.90;;;;;;5092086;28;20221;-82
2021/11/05 01:55:38;;;;;;;3.40;2.03;;;7.70;99.90;;;;;;5093129;28;20206;-81
2021/11/05 01:58:05;;;;;;;0.80;0.80;;;7.70;99.90;;;;;;5091597;28;20198;-82
2021/11/05 02:00:33;;;;;;;0.95;0.80;;;7.80;99.90;;;;;;5080340;28;20218;-81
2021/11/05 02:03:02;;;;;;;0.50;0.40;;;7.80;99.90;;;;;;5079026;28;20231;-82
2021/11/05 02:05:28;;;;;;;0.75;0.75;;;7.80;99.90;;;;;;5079472;28;20195;-82
2021/11/05 02:07:57;;;;;;;1.45;1.45;;;7.80;99.90;;;;;;5078867;28;20190;-82
2021/11/05 02:10:26;;;;;;;0.50;0.40;;;7.80;99.90;;;;;;5078970;28;20190;-82
2021/11/05 02:12:54;;;;;;;0.50;0.40;;;7.80;99.90;;;;;;5078948;28;20225;-82
2021/11/05 02:15:21;;;;;;;0.50;0.40;;;7.80;99.90;;;;;;5079373;28;20587;-82
2021/11/05 02:17:49;;;;;;;3.10;2.88;;;7.80;99.90;;;;;;5078695;28;20201;-83
2021/11/05 02:20:20;;;;;;;0.50;0.40;;;7.80;99.90;;;;;;5078618;28;20225;-82
2021/11/05 02:22:49;;;;;;;1.77;1.67;;;7.80;99.90;;;;;;5078982;28;20230;-82
2021/11/05 02:25:17;;;;;;;1.20;1.10;;;7.90;99.90;;;;;;5078834;28;20200;-82
2021/11/05 02:27:44;;;;;;;0.50;0.40;;;7.90;99.90;;;;;;5078578;28;20240;-82
2021/11/05 02:30:12;;;;;;;0.50;0.40;;;7.90;99.90;;;;;;5078878;28;20188;-82
2021/11/05 02:32:41;;;;;;;0.50;0.40;;;7.90;99.90;;;;;;5078579;28;20572;-83
2021/11/05 02:35:08;;;;;;;0.50;0.40;;;7.90;99.90;;;;;;5077658;28;20201;-82
2021/11/05 02:37:36;;;;;;;0.50;0.40;;;7.90;99.90;;;;;;5078342;28;20194;-78
2021/11/05 02:40:05;;;;;;;0.50;0.40;;;8.00;99.90;;;;;;5078179;28;20215;-79
2021/11/05 02:42:32;;;;;;;0.50;0.40;;;8.00;99.90;;;;;;5078701;28;20205;-82
2021/11/05 02:44:59;;;;;;;0.50;0.40;;;7.90;99.90;;;;;;5079084;28;20202;-82
2021/11/05 02:47:28;;;;;;;3.70;3.53;;;7.90;99.90;;;;;;5078347;28;20206;-82
2021/11/05 02:49:57;;;;;;;0.50;0.40;;;8.00;99.90;;;;;;5078195;28;20201;-83
2021/11/05 02:52:24;;;;;;;14.00;4.55;;;8.00;99.90;;;;;;5077469;28;20194;-82
2021/11/05 02:54:51;;;;;;;4.65;2.33;;;8.10;99.90;;;;;;5077967;28;20216;-82
2021/11/05 02:57:19;;;;;;;0.50;0.40;;;8.00;99.90;;;;;;5077570;28;20217;-82
2021/11/05 02:59:47;;;;;;;1.02;0.95;;;8.00;99.90;;;;;;5077632;28;20697;-82
2021/11/05 03:02:14;;;;;;;3.05;2.72;;;8.00;99.90;;;;;;5078217;28;20691;-82
2021/11/05 03:04:41;;;;;;;0.50;0.40;;;8.00;99.90;;;;;;5078060;28;20236;-82
2021/11/05 03:07:09;;;;;;;0.50;0.40;;;7.90;99.90;;;;;;5078835;28;20208;-82
2021/11/05 03:09:38;;;;;;;2.60;2.40;;;7.90;99.90;;;;;;5077846;28;20659;-82
2021/11/05 03:12:06;;;;;;;0.50;0.40;;;7.90;99.90;;;;;;5077528;28;20599;-83
2021/11/05 03:14:34;;;;;;;1.52;1.52;;;7.80;99.90;;;;;;5078895;28;20215;-82
2021/11/05 03:17:01;;;;;;;0.50;0.40;;;7.80;99.90;;;;;;5077884;28;20205;-83
2021/11/05 03:19:28;;;;;;;0.60;0.40;;;7.80;99.90;;;;;;5077940;28;20215;-82
2021/11/05 03:21:55;;;;;;;10.15;3.90;;;7.70;99.90;;;;;;5078524;28;20220;-82
2021/11/05 03:24:21;;;;;;;0.60;0.52;;;7.80;99.90;;;;;;5078340;28;20222;-80
2021/11/05 03:26:49;;;;;;;6.95;1.30;;;7.80;99.90;;;;;;5078340;28;20204;-82
2021/11/05 03:29:16;;;;;;;0.50;0.40;;;7.80;99.90;;;;;;5078523;28;20591;-81
2021/11/05 03:31:44;;;;;;;0.85;0.85;;;7.80;99.90;;;;;;5079131;28;20190;-82
2021/11/05 03:34:11;;;;;;;0.70;0.70;;;7.80;99.90;;;;;;5078087;28;20221;-83
2021/11/05 03:36:38;;;;;;;7.43;4.28;;;7.80;99.90;;;;;;5078712;28;20203;-83
2021/11/05 03:39:06;;;;;;;3.60;3.45;;;7.80;99.90;;;;;;5077692;28;20220;-82
2021/11/05 03:41:34;;;;;;;0.50;0.40;;;7.70;99.90;;;;;;5077366;28;20199;-82
2021/11/05 03:44:01;;;;;;;0.57;0.57;;;7.70;99.90;;;;;;5077974;28;20228;-82
2021/11/05 03:46:30;;;;;;;3.40;0.90;;;7.70;99.90;;;;;;5078272;28;20667;-82
2021/11/05 03:48:59;;;;;;;2.60;2.45;;;7.70;99.90;;;;;;5077176;28;20668;-82
2021/11/05 03:51:26;;;;;;;0.50;0.50;;;7.60;99.90;;;;;;5080711;28;20193;-82
2021/11/05 03:53:53;;;;;;;12.80;1.75;;;7.60;99.90;;;;;;5081738;28;20214;-82
2021/11/05 03:56:20;;;;;;;2.22;2.13;;;7.60;99.90;;;;;;5081674;28;20202;-82
2021/11/05 03:58:47;;;;;;;0.70;0.70;;;7.60;99.90;;;;;;5081607;28;20194;-83
2021/11/05 04:01:14;;;;;;;1.80;1.70;;;7.60;99.90;;;;;;5081095;28;20194;-81
2021/11/05 04:03:40;;;;;;;1.20;1.20;;;7.60;99.90;;;;;;5081720;28;20233;-82
2021/11/05 04:06:08;;;;;;;0.50;0.40;;;7.60;99.90;;;;;;5081708;28;20203;-82
2021/11/05 04:08:35;;;;;;;1.63;1.40;;;7.60;99.90;;;;;;5081238;28;20201;-82
2021/11/05 04:11:02;;;;;;;2.85;2.53;;;7.50;99.90;;;;;;5081084;28;20205;-85
2021/11/05 04:13:29;;;;;;;0.50;0.40;;;7.40;99.90;;;;;;5080969;28;20297;-80
2021/11/05 04:15:55;;;;;;;0.50;0.40;;;7.40;99.90;;;;;;5080702;28;20195;-83
2021/11/05 04:18:22;;;;;;;9.07;8.20;;;7.50;99.90;;;;;;5081001;28;20194;-82
2021/11/05 04:20:49;;;;;;;0.50;0.40;;;7.50;99.90;;;;;;5080561;28;20233;-81
2021/11/05 04:23:18;;;;;;;2.35;2.15;;;7.50;99.90;;;;;;5081266;28;20300;-83
2021/11/05 04:25:46;;;;;;;1.55;1.50;;;7.50;99.90;;;;;;5081148;28;20281;-82
2021/11/05 04:28:13;;;;;;;12.35;11.68;;;7.50;99.90;;;;;;5080585;28;20191;-82
2021/11/05 04:30:40;;;;;;;0.50;0.40;;;7.50;99.90;;;;;;5080960;28;20198;-82
2021/11/05 04:33:07;;;;;;;7.72;1.60;;;7.50;99.90;;;;;;5080404;28;20219;-82
2021/11/05 04:35:34;;;;;;;0.50;0.40;;;7.50;99.90;;;;;;5080558;28;20206;-82
2021/11/05 04:38:01;;;;;;;1.45;1.20;;;7.50;99.90;;;;;;5081299;28;20200;-83
2021/11/05 04:40:30;;;;;;;3.85;3.58;;;7.50;99.90;;;;;;5110913;22;20224;-75
2021/11/05 04:42:56;;;;;;;0.50;0.40;;;7.50;99.90;;;;;;5113973;28;20200;-77
2021/11/05 04:45:24;;;;;;;0.50;0.40;;;7.50;99.90;;;;;;5114484;28;20559;-76
2021/11/05 04:47:51;;;;;;;8.65;1.40;;;7.50;99.90;;;;;;5114394;28;20197;-77
2021/11/05 04:50:18;;;;;;;0.50;0.40;;;7.50;99.90;;;;;;5114166;28;20213;-76
2021/11/05 04:52:47;;;;;;;5.07;2.15;;;7.50;99.90;;;;;;5114000;28;20204;-76
2021/11/05 04:55:16;;;;;;;3.33;3.13;;;7.50;99.90;;;;;;5113916;28;20193;-76
2021/11/05 04:57:45;;;;;;;7.03;4.65;;;7.40;99.90;;;;;;5114143;28;20197;-77
2021/11/05 05:00:13;;;;;;;1.08;1.08;;;7.40;99.90;;;;;;5113578;28;20595;-75
2021/11/05 05:02:40;;;;;;;2.00;1.92;;;7.40;99.90;;;;;;5112997;28;20201;-76
2021/11/05 05:05:07;;;;;;;0.98;0.98;;;7.40;99.90;;;;;;5114346;28;20200;-75
2021/11/05 05:07:34;;;;;;;0.50;0.40;;;7.40;99.90;;;;;;5113787;28;20200;-76
2021/11/05 05:10:00;;;;;;;12.35;6.55;;;7.40;99.90;;;;;;5113893;28;20213;-76
2021/11/05 05:12:27;;;;;;;7.88;7.20;;;7.40;99.90;;;;;;5113888;28;20194;-76
2021/11/05 05:14:55;;;;;;;2.35;1.65;;;7.30;99.90;;;;;;5114289;28;20587;-75
2021/11/05 05:17:22;;;;;;;0.60;0.60;;;7.30;99.90;;;;;;5113185;28;20710;-75
2021/11/05 05:19:49;;;;;;;1.40;1.30;;;7.30;99.90;;;;;;5113965;28;20708;-75
2021/11/05 05:22:16;;;;;;;0.50;0.40;;;7.30;99.90;;;;;;5113676;28;20204;-75
2021/11/05 05:24:43;;;;;;;6.45;3.47;;;7.30;99.90;;;;;;5113894;28;20563;-77
2021/11/05 05:27:10;;;;;;;0.50;0.40;;;7.30;99.90;;;;;;5113764;28;20558;-76
2021/11/05 05:29:36;;;;;;;2.28;2.20;;;7.30;99.90;;;;;;5113859;28;20209;-74
2021/11/05 05:32:05;;;;;;;5.25;2.03;;;7.30;99.90;;;;;;5113246;28;20212;-76
2021/11/05 05:34:32;;;;;;;5.70;2.30;;;7.20;99.90;;;;;;5113445;28;20654;-75
2021/11/05 05:36:59;;;;;;;1.10;1.10;;;7.20;99.90;;;;;;5113528;28;20189;-75
2021/11/05 05:39:26;;;;;;;5.70;2.72;;;7.20;99.90;;;;;;5112819;28;20220;-76
2021/11/05 05:41:53;;;;;;;0.80;0.80;;;7.20;99.90;;;;;;5113255;28;20188;-76
2021/11/05 05:44:20;;;;;;;0.50;0.40;;;7.20;99.90;;;;;;5112617;28;20872;-76
2021/11/05 05:46:47;;;;;;;0.50;0.40;;;7.20;99.90;;;;;;5113566;28;20209;-76
2021/11/05 05:49:15;;;;;;;3.83;3.53;;;7.20;99.90;;;;;;5113226;28;20225;-76
2021/11/05 05:51:42;;;;;;;1.00;0.90;;;7.20;99.90;;;;;;5112998;28;20220;-76
2021/11/05 05:54:08;;;;;;;2.33;2.22;;;7.20;99.90;;;;;;5112173;28;20193;-75
2021/11/05 05:56:35;;;;;;;8.90;5.45;;;7.20;99.90;;;;;;5114973;28;20215;-75
2021/11/05 05:59:02;;;;;;;0.60;0.60;;;7.10;99.90;;;;;;5112951;28;20216;-76
2021/11/05 06:01:29;;;;;;;2.17;1.20;;;7.10;99.90;;;;;;5112991;28;20217;-77
2021/11/05 06:03:59;;;;;;;0.70;0.70;;;7.10;99.90;;;;;;5112661;28;20193;-76
2021/11/05 06:06:27;;;;;;;2.65;2.45;;;7.00;99.90;;;;;;5112714;28;20271;-76
2021/11/05 06:08:54;;;;;;;3.00;2.90;;;7.10;99.90;;;;;;5112824;28;20197;-75
2021/11/05 06:11:21;;;;;;;2.08;1.00;;;7.10;99.90;;;;;;5112822;28;20568;-76
2021/11/05 06:13:48;;;;;;;1.02;0.95;;;7.10;99.90;;;;;;5086289;28;20213;-74
2021/11/05 06:16:14;;;;;;;3.40;2.28;;;7.00;99.90;;;;;;5090567;28;20189;-76
2021/11/05 06:18:41;;;;;;;2.13;2.00;;;7.00;99.90;;;;;;5089769;28;20193;-76
2021/11/05 06:21:08;;;;;;;1.92;1.88;;;7.00;99.90;;;;;;5090294;28;20700;-76
2021/11/05 06:23:36;;;;;;;3.03;2.78;;;7.00;99.90;;;;;;5092182;28;20201;-75
2021/11/05 06:26:03;;;;;;;1.30;1.20;;;6.90;99.90;;;;;;5091762;28;20198;-76
2021/11/05 06:28:30;;;;;;;0.85;0.85;;;6.90;99.90;;;;;;5092157;28;20204;-76
2021/11/05 06:30:56;;;;;;;0.50;0.40;;;6.90;99.90;;;;;;5091600;28;20210;-76
2021/11/05 06:33:23;;;;;;;1.42;1.35;;;6.90;99.90;;;;;;5092123;28;20198;-75
2021/11/05 06:35:50;;;;;;;5.28;2.25;;;7.00;99.90;;;;;;5092235;28;20194;-77
2021/11/05 06:38:17;;;;;;;7.30;6.65;;;7.00;99.90;;;;;;5091940;28;20201;-74
2021/11/05 06:40:45;;;;;;;0.50;0.40;;;7.00;99.90;;;;;;5091277;28;20583;-71
2021/11/05 06:43:13;;;;;;;1.35;1.33;;;6.90;99.90;;;;;;5091611;28;20281;-74
2021/11/05 06:45:40;;;;;;;6.10;4.45;;;7.00;99.90;;;;;;5091751;28;20220;-75
2021/11/05 06:48:07;;;;;;;6.72;2.92;;;7.00;99.90;;;;;;5092003;28;20189;-73
2021/11/05 06:50:34;;;;;;;2.35;2.25;;;7.10;99.90;;;;;;5091032;28;20206;-73
2021/11/05 06:53:01;;;;;;;6.05;3.40;;;7.10;99.90;;;;;;5091763;28;20221;-74
2021/11/05 06:55:28;;;;;;;3.83;1.77;;;7.00;99.90;;;;;;5091470;28;20261;-75
2021/11/05 06:57:56;;;;;;;1.00;1.00;;;7.00;99.90;;;;;;5091620;28;20190;-73
2021/11/05 07:00:23;;;;;;;9.75;6.13;;;7.00;99.90;;;;;;5090898;28;20337;-75
2021/11/05 07:02:49;;;;;;;2.25;2.05;;;7.00;99.90;;;;;;5091552;28;20204;-74
2021/11/05 07:05:17;;;;;;;0.50;0.50;;;7.00;99.90;;;;;;5091619;28;20198;-75
2021/11/05 07:07:44;;;;;;;0.50;0.40;;;7.00;99.90;;;;;;5091518;28;20540;-75
2021/11/05 07:10:12;;;;;;;2.22;2.15;;;7.00;99.90;;;;;;5091006;28;20217;-75
2021/11/05 07:12:39;;;;;;;2.25;1.25;;;7.10;99.90;;;;;;5091702;28;20197;-75
2021/11/05 07:15:10;;;;;;;0.50;0.40;;;7.10;99.90;;;;;;5091373;28;20196;-75
2021/11/05 07:17:37;;;;;;;0.90;0.90;;;7.20;99.90;;;;;;5091230;28;20270;-72
2021/11/05 07:20:05;;;;;;;2.25;2.00;;;7.20;99.90;;;;;;5091503;28;20218;-75
2021/11/05 07:22:32;;;;;;;0.50;0.40;;;7.30;99.90;;;;;;5091731;28;20205;-76
2021/11/05 07:24:59;;;;;;;7.72;1.15;;;7.30;99.90;;;;;;5092853;28;20193;-76
2021/11/05 07:27:26;;;;;;;0.60;0.40;;;7.40;99.90;;;;;;5096099;28;20532;-76
2021/11/05 07:29:52;;;;;;;1.10;1.00;;;7.50;99.90;;;;;;5095620;28;20209;-76
2021/11/05 07:32:21;;;;;;;2.45;2.35;;;7.60;99.90;;;;;;5095065;28;20194;-75
2021/11/05 07:34:48;;;;;;;4.68;1.73;;;7.50;99.90;;;;;;5095559;28;20198;-75
2021/11/05 07:37:16;;;;;;;0.50;0.40;;;7.50;99.90;;;;;;5094772;28;20204;-76
2021/11/05 07:39:43;;;;;;;0.60;0.40;;;7.50;99.90;;;;;;5095288;28;20225;-73
2021/11/05 07:42:10;;;;;;;3.40;3.15;;;7.60;99.90;;;;;;5095044;28;20225;-75
2021/11/05 07:44:38;;;;;;;1.20;1.20;;;7.60;99.90;;;;;;5094804;28;20199;-75
2021/11/05 07:47:05;;;;;;;2.22;2.03;;;7.50;99.90;;;;;;5095115;28;20289;-76
2021/11/05 07:49:34;;;;;;;23.00;7.82;;;7.50;99.90;;;;;;5087916;28;20737;-75
2021/11/05 07:52:02;;;;;;;7.57;2.58;;;7.40;99.90;;;;;;5081560;28;20620;-76
2021/11/05 07:54:29;;;;;;;1.77;1.45;;;7.40;99.90;;;;;;5094906;28;20198;-76
2021/11/05 07:56:55;;;;;;;0.50;0.40;;;7.40;99.90;;;;;;5094689;28;20281;-74
2021/11/05 07:59:22;;;;;;;5.60;3.88;;;7.50;99.90;;;;;;5094230;28;20226;-74
2021/11/05 08:01:49;;;;;;;8.90;6.00;;;7.50;99.90;;;;;;5087844;28;20211;-75
2021/11/05 08:04:16;;;;;;;8.43;3.28;;;7.50;99.90;;;;;;5090037;28;20195;-76
2021/11/05 08:06:44;;;;;;;8.05;5.18;;;7.40;99.90;;;;;;5094939;28;20202;-75
2021/11/05 08:09:11;;;;;;;6.93;2.45;;;7.40;99.90;;;;;;5094468;28;20297;-76
2021/11/05 08:11:37;;;;;;;4.55;4.20;;;7.40;99.90;;;;;;5094037;28;20551;-75
2021/11/05 08:14:04;;;;;;;2.20;2.03;;;7.60;99.90;;;;;;5094590;28;20194;-76
2021/11/05 08:16:33;;;;;;;12.10;4.13;;;7.60;99.90;;;;;;5094875;28;20197;-75
2021/11/05 08:19:00;;;;;;;1.63;1.52;;;7.70;99.90;;;;;;5094570;28;20782;-75
2021/11/05 08:21:27;;;;;;;2.90;1.23;;;7.70;99.90;;;;;;5079219;28;20207;-74
2021/11/05 08:23:55;;;;;;;1.50;1.50;;;7.70;99.90;;;;;;5073335;28;20209;-76
2021/11/05 08:26:22;;;;;;;8.23;3.53;;;7.80;99.90;;;;;;5073527;28;20199;-77
2021/11/05 08:28:48;;;;;;;1.33;1.13;;;7.80;99.90;;;;;;5073119;28;20588;-77
2021/11/05 08:31:16;;;;;;;0.50;0.47;;;7.90;99.90;;;;;;5073200;28;20684;-76
2021/11/05 08:33:45;;;;;;;6.90;5.50;;;7.90;99.90;;;;;;5073287;28;20194;-77
2021/11/05 08:36:14;;;;;;;28.40;9.82;;;7.90;99.90;;;;;;5072268;28;20217;-77
2021/11/05 08:38:42;;;;;;;5.75;3.08;;;7.90;99.90;;;;;;5073729;28;20206;-76
2021/11/05 08:41:15;;;;;;;15.45;5.18;;;8.00;99.90;;;;;;5073317;28;20206;-76
2021/11/05 08:43:42;;;;;;;0.50;0.40;;;8.10;99.90;;;;;;5074008;28;20304;-76
2021/11/05 08:46:09;;;;;;;6.00;3.95;;;8.20;99.90;;;;;;5075200;28;20565;-76
2021/11/05 08:48:36;;;;;;;2.33;1.95;;;8.10;99.90;;;;;;5073281;28;20715;-80
2021/11/05 08:51:10;;;;;;;13.15;5.75;;;8.00;99.90;;;;;;5073428;28;20283;-77
2021/11/05 08:53:36;;;;;;;12.25;5.85;;;8.10;99.90;;;;;;5072736;28;20272;-76
2021/11/05 08:56:03;;;;;;;8.88;3.08;;;8.10;99.90;;;;;;5073555;28;20196;-75
2021/11/05 08:58:32;;;;;;;2.47;2.28;;;8.10;99.90;;;;;;5071888;28;20288;-78
2021/11/05 09:00:59;;;;;;;0.50;0.50;;;8.20;99.90;;;;;;5084735;28;20245;-77
2021/11/05 09:03:26;;;;;;;3.42;2.45;;;8.30;99.90;;;;;;5093108;28;20222;-74
2021/11/05 09:05:52;;;;;;;1.45;1.35;;;8.30;99.90;;;;;;5093346;28;20198;-76
2021/11/05 09:08:19;;;;;;;8.32;6.15;;;8.30;99.90;;;;;;5093150;28;20201;-77
2021/11/05 09:10:46;;;;;;;2.25;1.88;;;8.30;99.90;;;;;;5092703;28;20206;-75
2021/11/05 09:13:13;;;;;;;9.20;3.25;;;8.40;99.90;;;;;;5093288;28;20196;-76
2021/11/05 09:15:41;;;;;;;10.57;5.15;;;8.40;99.90;;;;;;5093338;28;20213;-76
2021/11/05 09:18:10;;;;;;;1.20;1.20;;;8.60;99.90;;;;;;5078638;28;20666;-77
2021/11/05 09:20:38;;;;;;;1.73;1.63;;;8.60;99.90;;;;;;5086247;28;20232;-76
2021/11/05 09:23:05;;;;;;;4.68;4.35;;;8.50;99.90;;;;;;5092770;28;20192;-76
2021/11/05 09:25:32;;;;;;;3.42;2.28;;;8.50;99.90;;;;;;5092893;28;20190;-76
2021/11/05 09:27:59;;;;;;;1.25;1.25;;;8.50;99.90;;;;;;5093185;28;20554;-76
2021/11/05 09:30:26;;;;;;;13.20;12.45;;;8.50;99.90;;;;;;5092118;28;20214;-76
2021/11/05 09:32:54;;;;;;;1.30;1.30;;;8.60;99.90;;;;;;5092391;28;20200;-76
2021/11/05 09:35:22;;;;;;;0.50;0.40;;;8.60;99.90;;;;;;5092898;28;20195;-76
2021/11/05 09:37:50;;;;;;;7.82;7.20;;;8.70;99.90;;;;;;5092533;28;20669;-76
2021/11/05 09:40:20;;;;;;;3.60;3.20;;;8.70;99.90;;;;;;5092404;28;20234;-76
2021/11/05 09:42:48;;;;;;;2.15;2.05;;;8.80;99.90;;;;;;5092964;28;20242;-75
2021/11/05 09:45:17;;;;;;;10.50;5.78;;;8.90;99.90;;;;;;5092144;28;20210;-76
2021/11/05 09:47:45;;;;;;;0.50;0.38;;;9.00;99.90;;;;;;5092392;28;20301;-77
2021/11/05 09:50:15;;;;;;;1.88;1.35;;;9.10;99.90;;;;;;5092193;28;20212;-78
2021/11/05 09:52:45;;;;;;;1.40;1.38;;;9.20;99.90;;;;;;5092646;28;20195;-77
2021/11/05 09:55:12;;;;;;;8.07;5.82;;;9.40;99.90;;;;;;5093684;28;20283;-76
2021/11/05 09:57:39;;;;;;;6.53;5.10;;;9.50;99.90;;;;;;5108137;28;20195;-77
2021/11/05 10:00:10;;;;;;;15.35;10.32;;;9.60;99.90;;;;;;5111031;28;20211;-76
2021/11/05 10:02:36;;;;;;;4.45;3.90;;;9.40;99.90;;;;;;5111332;28;20220;-77
2021/11/05 10:05:04;;;;;;;4.63;4.22;;;9.20;99.90;;;;;;5111631;28;20571;-76
2021/11/05 10:07:44;;;;;;;6.78;5.25;;;9.20;99.90;;;;;;5112182;28;20205;-77
2021/11/05 10:10:11;;;;;;;7.05;5.18;;;9.10;99.90;;;;;;5111554;28;20215;-77
2021/11/05 10:12:38;;;;;;;6.40;6.00;;;9.10;99.90;;;;;;5112119;28;20191;-76
2021/11/05 10:15:06;;;;;;;7.50;4.88;;;9.10;99.90;;;;;;5110994;28;20694;-76
2021/11/05 10:17:35;;;;;;;2.38;2.17;;;9.20;99.90;;;;;;5111619;28;20262;-77
2021/11/05 10:20:07;;;;;;;8.52;7.80;;;9.30;99.90;;;;;;5112004;28;20310;-76
2021/11/05 10:22:47;;;;;;;2.90;2.50;;;9.40;99.90;;;;;;5111777;28;20213;-77
2021/11/05 10:25:19;;;;;;;10.50;3.67;;;9.40;99.90;;;;;;5111794;28;20190;-75
2021/11/05 10:27:47;;;;;;;0.98;0.98;;;9.50;99.90;;;;;;5111922;28;20195;-77
2021/11/05 10:30:13;;;;;;;1.73;1.63;;;9.40;99.90;;;;;;5112630;28;20579;-76
2021/11/05 10:32:53;;;;;;;7.30;6.60;;;9.50;99.90;;;;;;5112178;28;20196;-74
2021/11/05 10:35:21;;;;;;;2.67;2.55;;;9.60;99.90;;;;;;5112492;28;20189;-76
2021/11/05 10:37:54;;;;;;;11.88;5.65;;;9.70;99.90;;;;;;5111800;28;20224;-76
2021/11/05 10:40:21;;;;;;;4.80;4.22;;;9.70;99.90;;;;;;5092748;28;20227;-77
2021/11/05 10:42:48;;;;;;;10.70;4.55;;;9.70;99.90;;;;;;5091280;28;20215;-76
2021/11/05 10:45:17;;;;;;;11.52;4.07;;;9.80;99.90;;;;;;5091222;28;20235;-77
2021/11/05 10:47:59;;;;;;;9.27;8.10;;;9.70;99.90;;;;;;5090899;28;20564;-76
2021/11/05 10:50:28;;;;;;;3.35;3.05;;;9.70;99.90;;;;;;5091004;28;20214;-76
2021/11/05 10:53:02;;;;;;;9.45;5.18;;;9.70;99.90;;;;;;5091342;28;20194;-75
2021/11/05 10:55:40;;;;;;;6.22;4.30;;;9.50;99.90;;;;;;5071327;28;20203;-74
2021/11/05 10:58:07;;;;;;;3.58;3.40;;;9.40;99.90;;;;;;5070819;28;20201;-76
2021/11/05 11:00:35;;;;;;;3.53;3.33;;;9.30;99.90;;;;;;5069999;28;20224;-75
2021/11/05 11:03:15;;;;;;;2.22;2.10;;;9.30;99.90;;;;;;5070955;28;20747;-77
2021/11/05 11:05:44;;;;;;;0.75;0.75;;;9.40;99.90;;;;;;5070844;28;20195;-75
2021/11/05 11:08:21;;;;;;;4.40;2.90;;;9.60;99.90;;;;;;5081300;28;20191;-75
2021/11/05 11:10:50;;;;;;;2.97;2.67;;;9.80;99.90;;;;;;5087294;28;20212;-72
2021/11/05 11:13:37;;;;;;;3.85;3.08;;;10.10;99.90;;;;;;5091301;28;20282;-77
2021/11/05 11:16:07;;;;;;;6.85;6.47;;;10.40;99.90;;;;;;5091400;28;20200;-76
2021/11/05 11:18:45;;;;;;;6.93;4.85;;;10.50;99.90;;;;;;5091076;28;20203;-76
2021/11/05 11:21:12;;;;;;;10.75;5.65;;;10.80;99.90;;;;;;5079232;28;20197;-76
2021/11/05 11:23:40;;;;;;;2.72;2.28;;;10.80;99.90;;;;;;5069904;28;20201;-74
2021/11/05 11:26:08;;;;;;;6.60;5.97;;;10.80;99.90;;;;;;5070857;28;20583;-76
2021/11/05 11:28:35;;;;;;;9.55;7.95;;;10.90;99.90;;;;;;5070779;28;20201;-76
2021/11/05 11:31:02;;;;;;;8.10;7.35;;;10.70;99.90;;;;;;5070178;28;20726;-76
2021/11/05 11:33:29;;;;;;;4.93;3.95;;;10.70;99.90;;;;;;5070750;28;20198;-76
2021/11/05 11:38:29;;;;;;;17.63;7.22;;;11.30;99.90;;;;;;5151356;22;20221;-82
2021/11/05 11:40:58;;;;;;;7.03;4.95;;;11.40;99.90;;;;;;5103730;28;20192;-83
2021/11/05 11:43:27;;;;;;;4.88;4.45;;;11.20;99.90;;;;;;5114040;28;20216;-83
2021/11/05 11:45:55;;;;;;;2.30;2.10;;;11.20;99.90;;;;;;5114909;28;20236;-82
2021/11/05 11:48:45;;;;;;;2.97;2.78;;;11.20;99.90;;;;;;5114277;28;20222;-82
2021/11/05 11:51:32;;;;;;;4.82;1.67;;;11.10;99.90;;;;;;5113523;28;20576;-81
2021/11/05 11:54:03;;;;;;;2.30;2.17;;;11.10;99.90;;;;;;5115103;28;20268;-83
2021/11/05 11:56:38;;;;;;;10.13;5.40;;;11.00;99.90;;;;;;5115387;28;20585;-83
2021/11/05 11:59:06;;;;;;;2.55;1.85;;;11.00;99.90;;;;;;5115084;28;20184;-83
2021/11/05 12:01:37;;;;;;;2.55;2.35;;;11.10;99.90;;;;;;5113827;28;20589;-82
2021/11/05 12:04:05;;;;;;;4.72;4.32;;;11.10;99.90;;;;;;5114051;28;20204;-83
2021/11/05 12:07:00;;;;;;;3.28;2.88;;;11.10;99.90;;;;;;5114479;28;20216;-83
2021/11/05 12:09:28;;;;;;;0.50;0.40;;;11.10;99.90;;;;;;5115116;28;20196;-83
2021/11/05 12:12:33;;;;;;;14.10;4.57;;;11.30;99.90;;;;;;5117829;28;20192;-82
2021/11/05 12:15:14;;;;;;;4.40;3.97;;;11.20;99.90;;;;;;5118407;28;20196;-83
2021/11/05 12:18:06;;;;;;;1.00;0.70;;;11.10;99.90;;;;;;5117657;27;20219;-84
2021/11/05 12:20:37;;;;;;;3.20;2.70;;;11.00;99.90;;;;;;5117537;28;20200;-83
2021/11/05 12:23:26;;;;;;;0.85;0.85;;;10.90;99.90;;;;;;5118467;28;20234;-83
2021/11/05 12:25:58;;;;;;;2.03;1.92;;;10.80;99.90;;;;;;5117779;28;20180;-82
2021/11/05 12:28:29;;;;;;;3.67;2.13;;;10.70;99.90;;;;;;5118458;28;20214;-83
2021/11/05 12:31:28;;;;;;;0.50;0.50;;;10.60;99.90;;;;;;5117863;28;20180;-84
2021/11/05 12:33:56;;;;;;;0.50;0.40;;;10.50;99.90;;;;;;5117852;28;20204;-80
2021/11/05 12:36:46;;;;;;;0.50;0.40;;;10.40;99.90;;;;;;5117592;28;20203;-82
2021/11/05 12:39:13;;;;;;;0.75;0.75;;;10.40;99.90;;;;;;5118249;28;20195;-83
2021/11/05 12:41:59;;;;;;;1.58;1.48;;;10.40;99.90;;;;;;5117360;28;20210;-82
2021/11/05 12:44:29;;;;;;;0.50;0.40;;;10.60;99.90;;;;;;5118299;28;20614;-84
2021/11/05 12:46:57;;;;;;;0.50;0.40;;;10.50;99.90;;;;;;5118748;28;20216;-82
2021/11/05 12:49:24;;;;;;;1.05;0.88;;;10.50;99.90;;;;;;5118601;28;20194;-82
2021/11/05 12:51:52;;;;;;;0.70;0.70;;;10.50;99.90;;;;;;5117856;28;20679;-81
2021/11/05 12:54:21;;;;;;;0.50;0.40;;;10.60;99.90;;;;;;5117280;28;20202;-83
2021/11/05 12:56:52;;;;;;;0.50;0.40;;;10.60;99.90;;;;;;5117625;28;20607;-82
2021/11/05 12:59:22;;;;;;;0.50;0.50;;;10.60;99.90;;;;;;5117721;28;20196;-83
2021/11/05 13:01:58;;;;;;;0.50;0.40;;;10.70;99.90;;;;;;5118199;28;20210;-83
2021/11/05 13:04:29;;;;;;;0.50;0.30;;;10.70;99.90;;;;;;5117881;28;20248;-82